createdAt,value
2023-04-27T00:00:43.143Z,998.70
2023-04-27T00:01:43.141Z,998.72
2023-04-27T00:02:43.196Z,998.72
2023-04-27T00:03:43.245Z,998.73
2023-04-27T00:04:43.098Z,998.76
2023-04-27T00:05:43.105Z,998.76
2023-04-27T00:06:42.741Z,998.75
2023-04-27T00:07:42.690Z,998.73
2023-04-27T00:08:42.602Z,998.70
2023-04-27T00:09:42.601Z,998.74
2023-04-27T00:10:42.520Z,998.71
2023-04-27T00:11:42.417Z,998.73
2023-04-27T00:12:42.397Z,998.68
2023-04-27T00:13:42.312Z,998.67
2023-04-27T00:14:42.249Z,998.68
2023-04-27T00:15:42.248Z,998.65
2023-04-27T00:16:42.177Z,998.65
2023-04-27T00:17:42.116Z,998.65
2023-04-27T00:18:41.981Z,998.65
2023-04-27T00:19:41.936Z,998.62
2023-04-27T00:20:41.861Z,998.66
2023-04-27T00:21:41.814Z,998.65
2023-04-27T00:22:41.712Z,998.65
2023-04-27T00:23:41.670Z,998.65
2023-04-27T00:24:41.610Z,998.61
2023-04-27T00:25:41.604Z,998.62
2023-04-27T00:26:41.450Z,998.60
2023-04-27T00:27:41.446Z,998.61
2023-04-27T00:28:42.169Z,998.61
2023-04-27T00:29:41.273Z,998.61
2023-04-27T00:30:41.254Z,998.59
2023-04-27T00:31:41.212Z,998.63
2023-04-27T00:32:41.167Z,998.63
2023-04-27T00:33:41.677Z,998.61
2023-04-27T00:35:01.995Z,998.63
2023-04-27T00:35:40.963Z,998.65
2023-04-27T00:36:40.888Z,998.63
2023-04-27T00:37:40.752Z,998.63
2023-04-27T00:38:40.775Z,998.60
2023-04-27T00:39:40.649Z,998.60
2023-04-27T00:40:40.630Z,998.59
2023-04-27T00:41:40.496Z,998.58
2023-04-27T00:42:40.508Z,998.62
2023-04-27T00:43:40.456Z,998.57
2023-04-27T00:44:40.378Z,998.57
2023-04-27T00:45:40.303Z,998.54
2023-04-27T00:46:40.254Z,998.58
2023-04-27T00:47:40.234Z,998.55
2023-04-27T00:48:40.049Z,998.50
2023-04-27T00:49:39.997Z,998.50
2023-04-27T00:50:39.976Z,998.48
2023-04-27T00:51:39.890Z,998.51
2023-04-27T00:52:39.846Z,998.56
2023-04-27T00:53:39.764Z,998.57
2023-04-27T00:54:39.701Z,998.58
2023-04-27T00:55:39.616Z,998.56
2023-04-27T00:56:39.603Z,998.57
2023-04-27T00:57:39.534Z,998.59
2023-04-27T00:58:39.466Z,998.59
2023-04-27T00:59:39.383Z,998.56
2023-04-27T01:00:39.340Z,998.61
2023-04-27T01:01:39.315Z,998.55
2023-04-27T01:02:39.423Z,998.57
2023-04-27T01:03:39.395Z,998.56
2023-04-27T01:04:39.190Z,998.56
2023-04-27T01:05:39.043Z,998.58
2023-04-27T01:06:38.960Z,998.54
2023-04-27T01:07:38.881Z,998.57
2023-04-27T01:08:38.805Z,998.61
2023-04-27T01:09:38.719Z,998.63
2023-04-27T01:10:56.092Z,998.63
2023-04-27T01:11:38.625Z,998.65
2023-04-27T01:12:38.578Z,998.66
2023-04-27T01:13:38.463Z,998.67
2023-04-27T01:14:38.419Z,998.65
2023-04-27T01:15:38.394Z,998.65
2023-04-27T01:16:38.288Z,998.68
2023-04-27T01:17:38.257Z,998.67
2023-04-27T01:18:38.194Z,998.69
2023-04-27T01:19:38.070Z,998.73
2023-04-27T01:20:38.052Z,998.73
2023-04-27T01:21:37.989Z,998.71
2023-04-27T01:22:37.954Z,998.72
2023-04-27T01:23:37.850Z,998.70
2023-04-27T01:24:37.795Z,998.69
2023-04-27T01:25:37.726Z,998.71
2023-04-27T01:26:37.686Z,998.74
2023-04-27T01:27:37.591Z,998.76
2023-04-27T01:29:47.751Z,998.72
2023-04-27T01:30:47.658Z,998.72
2023-04-27T01:31:47.761Z,998.70
2023-04-27T01:32:47.566Z,998.71
2023-04-27T01:33:47.500Z,998.72
2023-04-27T01:34:47.458Z,998.70
2023-04-27T01:35:47.411Z,998.73
2023-04-27T01:36:47.299Z,998.76
2023-04-27T01:37:47.243Z,998.74
2023-04-27T01:38:47.207Z,998.73
2023-04-27T01:39:47.143Z,998.78
2023-04-27T01:40:47.080Z,998.79
2023-04-27T01:41:47.003Z,998.80
2023-04-27T01:42:47.527Z,998.82
2023-04-27T01:43:46.888Z,998.81
2023-04-27T01:44:46.796Z,998.83
2023-04-27T01:45:46.737Z,998.86
2023-04-27T01:46:46.782Z,998.88
2023-04-27T01:48:23.604Z,998.87
2023-04-27T01:48:46.523Z,998.88
2023-04-27T01:49:46.477Z,998.87
2023-04-27T01:50:46.390Z,998.85
2023-04-27T01:51:46.377Z,998.88
2023-04-27T01:52:46.267Z,998.87
2023-04-27T01:53:46.274Z,998.89
2023-04-27T01:54:46.172Z,998.86
2023-04-27T01:55:46.107Z,998.92
2023-04-27T01:56:46.043Z,998.87
2023-04-27T01:57:45.949Z,998.91
2023-04-27T01:58:45.913Z,998.90
2023-04-27T01:59:45.865Z,998.95
2023-04-27T02:00:45.791Z,998.95
2023-04-27T02:01:45.777Z,998.98
2023-04-27T02:02:45.855Z,999.04
2023-04-27T02:03:45.769Z,998.99
2023-04-27T02:04:45.650Z,999.00
2023-04-27T02:07:54.803Z,999.07
2023-04-27T02:08:55.671Z,999.04
2023-04-27T02:09:55.630Z,999.08
2023-04-27T02:10:55.565Z,999.05
2023-04-27T02:11:55.538Z,999.04
2023-04-27T02:12:55.449Z,999.05
2023-04-27T02:13:55.391Z,999.05
2023-04-27T02:14:55.336Z,999.06
2023-04-27T02:15:55.329Z,999.08
2023-04-27T02:16:55.197Z,999.10
2023-04-27T02:17:55.167Z,999.13
2023-04-27T02:18:55.071Z,999.15
2023-04-27T02:19:54.996Z,999.14
2023-04-27T02:20:54.961Z,999.13
2023-04-27T02:21:54.839Z,999.11
2023-04-27T02:22:54.778Z,999.10
2023-04-27T02:23:54.722Z,999.09
2023-04-27T02:24:55.516Z,999.08
2023-04-27T02:25:54.614Z,999.12
2023-04-27T02:26:54.552Z,999.13
2023-04-27T02:27:54.487Z,999.14
2023-04-27T02:28:54.448Z,999.09
2023-04-27T02:29:54.358Z,999.11
2023-04-27T02:30:54.614Z,999.11
2023-04-27T02:31:54.321Z,999.14
2023-04-27T02:32:54.223Z,999.18
2023-04-27T02:33:54.092Z,999.20
2023-04-27T02:34:54.040Z,999.25
2023-04-27T02:35:54.039Z,999.24
2023-04-27T02:36:53.906Z,999.23
2023-04-27T02:37:53.850Z,999.21
2023-04-27T02:38:53.762Z,999.18
2023-04-27T02:39:53.698Z,999.18
2023-04-27T02:40:53.671Z,999.23
2023-04-27T02:41:53.570Z,999.21
2023-04-27T02:43:11.046Z,999.29
2023-04-27T02:43:53.440Z,999.29
2023-04-27T02:44:53.413Z,999.31
2023-04-27T02:45:53.309Z,999.33
2023-04-27T02:46:53.352Z,999.31
2023-04-27T02:47:53.296Z,999.33
2023-04-27T02:48:53.137Z,999.36
2023-04-27T02:49:53.092Z,999.37
2023-04-27T02:50:54.020Z,999.36
2023-04-27T02:51:52.984Z,999.41
2023-04-27T02:52:52.905Z,999.39
2023-04-27T02:53:52.803Z,999.44
2023-04-27T02:54:52.784Z,999.45
2023-04-27T02:55:52.702Z,999.44
2023-04-27T02:56:52.702Z,999.38
2023-04-27T02:57:52.587Z,999.37
2023-04-27T02:58:52.566Z,999.36
2023-04-27T02:59:52.457Z,999.41
2023-04-27T03:01:13.414Z,999.40
2023-04-27T03:01:52.322Z,999.37
2023-04-27T03:02:52.390Z,999.41
2023-04-27T03:03:52.396Z,999.41
2023-04-27T03:04:52.998Z,999.40
2023-04-27T03:05:52.095Z,999.44
2023-04-27T03:06:51.992Z,999.34
2023-04-27T03:07:51.915Z,999.34
2023-04-27T03:08:51.910Z,999.35
2023-04-27T03:09:51.794Z,999.35
2023-04-27T03:10:54.358Z,999.34
2023-04-27T03:11:51.714Z,999.33
2023-04-27T03:13:09.021Z,999.36
2023-04-27T03:13:51.590Z,999.37
2023-04-27T03:14:52.184Z,999.34
2023-04-27T03:15:51.464Z,999.37
2023-04-27T03:16:51.452Z,999.36
2023-04-27T03:17:51.362Z,999.36
2023-04-27T03:19:08.612Z,999.35
2023-04-27T03:19:51.203Z,999.36
2023-04-27T03:20:51.088Z,999.41
2023-04-27T03:21:51.074Z,999.40
2023-04-27T03:22:50.999Z,999.43
2023-04-27T03:23:50.948Z,999.37
2023-04-27T03:24:50.865Z,999.38
2023-04-27T03:25:50.821Z,999.36
2023-04-27T03:26:50.708Z,999.38
2023-04-27T03:27:50.700Z,999.35
2023-04-27T03:28:50.635Z,999.35
2023-04-27T03:29:50.546Z,999.33
2023-04-27T03:30:50.510Z,999.33
2023-04-27T03:31:50.439Z,999.38
2023-04-27T03:32:50.356Z,999.34
2023-04-27T03:33:50.207Z,999.32
2023-04-27T03:34:50.256Z,999.34
2023-04-27T03:35:50.152Z,999.30
2023-04-27T03:37:11.025Z,999.34
2023-04-27T03:37:49.981Z,999.31
2023-04-27T03:38:50.499Z,999.30
2023-04-27T03:39:49.851Z,999.30
2023-04-27T03:40:49.831Z,999.33
2023-04-27T03:41:49.732Z,999.29
2023-04-27T03:42:49.710Z,999.31
2023-04-27T03:43:49.601Z,999.30
2023-04-27T03:44:49.548Z,999.33
2023-04-27T03:45:49.576Z,999.25
2023-04-27T03:46:49.472Z,999.25
2023-04-27T03:47:49.373Z,999.27
2023-04-27T03:48:49.296Z,999.26
2023-04-27T03:49:50.714Z,999.25
2023-04-27T03:50:49.152Z,999.24
2023-04-27T03:51:49.088Z,999.26
2023-04-27T03:52:49.029Z,999.25
2023-04-27T03:53:48.988Z,999.18
2023-04-27T03:54:48.977Z,999.28
2023-04-27T03:55:48.868Z,999.22
2023-04-27T03:56:48.792Z,999.24
2023-04-27T03:57:48.708Z,999.24
2023-04-27T03:58:48.657Z,999.28
2023-04-27T03:59:48.612Z,999.30
2023-04-27T04:00:49.535Z,999.24
2023-04-27T04:01:48.515Z,999.24
2023-04-27T04:02:48.628Z,999.31
2023-04-27T04:03:48.485Z,999.27
2023-04-27T04:04:48.318Z,999.28
2023-04-27T04:05:48.206Z,999.31
2023-04-27T04:06:48.138Z,999.25
2023-04-27T04:07:48.070Z,999.19
2023-04-27T04:08:48.038Z,999.21
2023-04-27T04:09:47.967Z,999.26
2023-04-27T04:10:47.882Z,999.24
2023-04-27T04:11:47.844Z,999.26
2023-04-27T04:14:27.418Z,999.34
2023-04-27T04:15:28.388Z,999.30
2023-04-27T04:16:29.050Z,999.28
2023-04-27T04:17:28.364Z,999.27
2023-04-27T04:18:28.241Z,999.26
2023-04-27T04:19:28.139Z,999.25
2023-04-27T04:20:28.053Z,999.22
2023-04-27T04:21:28.163Z,999.23
2023-04-27T04:22:27.924Z,999.24
2023-04-27T04:23:27.852Z,999.25
2023-04-27T04:24:27.767Z,999.26
2023-04-27T04:25:27.781Z,999.21
2023-04-27T04:26:27.687Z,999.24
2023-04-27T04:27:27.638Z,999.29
2023-04-27T04:28:27.572Z,999.25
2023-04-27T04:29:27.500Z,999.24
2023-04-27T04:30:27.449Z,999.26
2023-04-27T04:31:44.746Z,999.28
2023-04-27T04:32:27.317Z,999.28
2023-04-27T04:33:27.248Z,999.32
2023-04-27T04:34:27.162Z,999.33
2023-04-27T04:35:27.095Z,999.34
2023-04-27T04:36:27.055Z,999.30
2023-04-27T04:37:27.272Z,999.31
2023-04-27T04:38:26.925Z,999.30
2023-04-27T04:39:26.857Z,999.28
2023-04-27T04:40:26.749Z,999.32
2023-04-27T04:41:26.744Z,999.32
2023-04-27T04:42:26.673Z,999.32
2023-04-27T04:43:26.594Z,999.33
2023-04-27T04:44:26.504Z,999.32
2023-04-27T04:45:26.484Z,999.35
2023-04-27T04:46:26.423Z,999.37
2023-04-27T04:47:26.405Z,999.37
2023-04-27T04:48:26.252Z,999.41
2023-04-27T04:49:47.179Z,999.36
2023-04-27T04:50:26.116Z,999.38
2023-04-27T04:51:26.105Z,999.40
2023-04-27T04:52:26.005Z,999.38
2023-04-27T04:53:26.010Z,999.41
2023-04-27T04:54:25.887Z,999.44
2023-04-27T04:55:25.826Z,999.44
2023-04-27T04:56:25.797Z,999.46
2023-04-27T04:57:25.691Z,999.46
2023-04-27T04:58:25.633Z,999.47
2023-04-27T04:59:25.568Z,999.49
2023-04-27T05:00:25.482Z,999.52
2023-04-27T05:01:25.447Z,999.54
2023-04-27T05:02:25.508Z,999.60
2023-04-27T05:03:25.481Z,999.61
2023-04-27T05:04:25.486Z,999.61
2023-04-27T05:05:25.187Z,999.60
2023-04-27T05:06:25.114Z,999.57
2023-04-27T05:07:25.253Z,999.60
2023-04-27T05:08:25.970Z,999.62
2023-04-27T05:09:24.946Z,999.68
2023-04-27T05:10:24.863Z,999.66
2023-04-27T05:11:24.803Z,999.68
2023-04-27T05:12:24.738Z,999.64
2023-04-27T05:13:24.721Z,999.69
2023-04-27T05:14:24.640Z,999.71
2023-04-27T05:15:24.559Z,999.69
2023-04-27T05:16:24.551Z,999.67
2023-04-27T05:17:24.458Z,999.73
2023-04-27T05:18:24.388Z,999.73
2023-04-27T05:19:24.356Z,999.76
2023-04-27T05:20:24.254Z,999.77
2023-04-27T05:21:24.199Z,999.81
2023-04-27T05:22:24.983Z,999.81
2023-04-27T05:23:24.046Z,999.79
2023-04-27T05:24:23.951Z,999.78
2023-04-27T05:25:23.946Z,999.80
2023-04-27T05:26:23.854Z,999.79
2023-04-27T05:27:23.768Z,999.73
2023-04-27T05:28:23.758Z,999.76
2023-04-27T05:29:23.633Z,999.77
2023-04-27T05:30:23.629Z,999.80
2023-04-27T05:31:23.572Z,999.84
2023-04-27T05:32:24.451Z,999.81
2023-04-27T05:33:23.383Z,999.88
2023-04-27T05:34:23.326Z,999.83
2023-04-27T05:35:23.292Z,999.89
2023-04-27T05:36:23.431Z,999.92
2023-04-27T05:37:25.555Z,999.94
2023-04-27T05:38:23.151Z,999.92
2023-04-27T05:39:23.747Z,999.96
2023-04-27T05:40:23.009Z,999.95
2023-04-27T05:41:24.303Z,999.97
2023-04-27T05:42:23.858Z,999.98
2023-04-27T05:43:25.703Z,999.99
2023-04-27T05:44:23.568Z,999.96
2023-04-27T05:45:22.852Z,999.99
2023-04-27T05:46:22.640Z,999.99
2023-04-27T05:47:22.668Z,1000.03
2023-04-27T05:48:22.467Z,1000.02
2023-04-27T05:49:22.921Z,1000.04
2023-04-27T05:50:22.507Z,1000.02
2023-04-27T05:51:22.265Z,1000.01
2023-04-27T05:52:22.211Z,1000.05
2023-04-27T05:53:22.139Z,1000.08
2023-04-27T05:54:22.118Z,1000.07
2023-04-27T05:55:22.075Z,1000.07
2023-04-27T05:56:21.951Z,1000.08
2023-04-27T05:57:21.910Z,1000.12
2023-04-27T05:58:21.860Z,1000.12
2023-04-27T05:59:21.834Z,1000.16
2023-04-27T06:00:21.734Z,1000.18
2023-04-27T06:01:38.959Z,1000.18
2023-04-27T06:02:21.629Z,1000.16
2023-04-27T06:03:21.742Z,1000.16
2023-04-27T06:04:21.610Z,1000.14
2023-04-27T06:05:22.300Z,1000.13
2023-04-27T06:06:21.316Z,1000.15
2023-04-27T06:07:21.288Z,1000.18
2023-04-27T06:08:21.210Z,1000.17
2023-04-27T06:09:21.732Z,1000.17
2023-04-27T06:10:21.090Z,1000.20
2023-04-27T06:11:20.993Z,1000.19
2023-04-27T06:12:21.211Z,1000.21
2023-04-27T06:13:21.142Z,1000.17
2023-04-27T06:14:20.795Z,1000.14
2023-04-27T06:15:20.737Z,1000.15
2023-04-27T06:16:20.737Z,1000.17
2023-04-27T06:17:20.631Z,1000.15
2023-04-27T06:18:21.230Z,1000.18
2023-04-27T06:19:20.537Z,1000.17
2023-04-27T06:20:20.445Z,1000.18
2023-04-27T06:21:20.330Z,1000.19
2023-04-27T06:22:20.313Z,1000.14
2023-04-27T06:23:20.233Z,1000.24
2023-04-27T06:24:20.169Z,1000.18
2023-04-27T06:25:20.219Z,1000.20
2023-04-27T06:26:20.041Z,1000.18
2023-04-27T06:27:20.048Z,1000.16
2023-04-27T06:28:19.920Z,1000.23
2023-04-27T06:29:19.833Z,1000.23
2023-04-27T06:30:19.832Z,1000.27
2023-04-27T06:31:19.832Z,1000.22
2023-04-27T06:32:19.700Z,1000.20
2023-04-27T06:33:19.599Z,1000.17
2023-04-27T06:34:19.554Z,1000.14
2023-04-27T06:35:19.463Z,1000.17
2023-04-27T06:36:19.459Z,1000.15
2023-04-27T06:39:57.760Z,1000.17
2023-04-27T06:40:59.180Z,1000.17
2023-04-27T06:41:58.554Z,1000.19
2023-04-27T06:42:58.568Z,1000.23
2023-04-27T06:43:59.015Z,1000.27
2023-04-27T06:44:58.423Z,1000.25
2023-04-27T06:45:58.521Z,1000.26
2023-04-27T06:46:58.258Z,1000.27
2023-04-27T06:47:58.263Z,1000.28
2023-04-27T06:48:58.133Z,1000.28
2023-04-27T06:49:58.108Z,1000.28
2023-04-27T06:50:58.729Z,1000.28
2023-04-27T06:51:58.724Z,1000.26
2023-04-27T06:52:57.955Z,1000.27
2023-04-27T06:53:57.879Z,1000.27
2023-04-27T06:54:57.738Z,1000.33
2023-04-27T06:55:57.696Z,1000.32
2023-04-27T06:56:57.606Z,1000.20
2023-04-27T06:57:57.543Z,1000.23
2023-04-27T06:58:57.563Z,1000.22
2023-04-27T06:59:57.445Z,1000.23
2023-04-27T07:00:57.392Z,1000.25
2023-04-27T07:01:57.351Z,1000.21
2023-04-27T07:02:57.368Z,1000.21
2023-04-27T07:03:57.380Z,1000.27
2023-04-27T07:04:57.246Z,1000.23
2023-04-27T07:05:57.066Z,1000.23
2023-04-27T07:06:56.991Z,1000.29
2023-04-27T07:07:56.960Z,1000.24
2023-04-27T07:08:56.911Z,1000.25
2023-04-27T07:09:56.925Z,1000.27
2023-04-27T07:10:56.767Z,1000.27
2023-04-27T07:11:56.689Z,1000.25
2023-04-27T07:12:56.605Z,1000.32
2023-04-27T07:15:05.775Z,1000.35
2023-04-27T07:16:06.707Z,1000.32
2023-04-27T07:17:06.626Z,1000.27
2023-04-27T07:18:06.679Z,1000.29
2023-04-27T07:19:06.507Z,1000.23
2023-04-27T07:20:06.516Z,1000.27
2023-04-27T07:21:06.417Z,1000.21
2023-04-27T07:22:06.334Z,1000.22
2023-04-27T07:23:06.278Z,1000.15
2023-04-27T07:24:06.236Z,1000.17
2023-04-27T07:25:06.648Z,1000.23
2023-04-27T07:26:06.665Z,1000.26
2023-04-27T07:27:06.029Z,1000.26
2023-04-27T07:28:05.958Z,1000.23
2023-04-27T07:29:14.434Z,1000.13
2023-04-27T07:30:05.816Z,1000.20
2023-04-27T07:31:05.773Z,1000.16
2023-04-27T07:32:23.172Z,1000.22
2023-04-27T07:33:05.757Z,1000.25
2023-04-27T07:34:05.654Z,1000.26
2023-04-27T07:35:05.578Z,1000.21
2023-04-27T07:36:05.481Z,1000.23
2023-04-27T07:37:05.413Z,1000.29
2023-04-27T07:38:05.917Z,1000.31
2023-04-27T07:39:05.271Z,1000.24
2023-04-27T07:40:05.238Z,1000.29
2023-04-27T07:41:05.141Z,1000.25
2023-04-27T07:42:05.085Z,1000.20
2023-04-27T07:43:04.985Z,1000.20
2023-04-27T07:44:04.985Z,1000.24
2023-04-27T07:45:04.864Z,1000.17
2023-04-27T07:46:04.839Z,1000.23
2023-04-27T07:47:04.778Z,1000.22
2023-04-27T07:48:05.596Z,1000.26
2023-04-27T07:49:04.628Z,1000.19
2023-04-27T07:50:39.215Z,1000.27
2023-04-27T07:51:04.534Z,1000.25
2023-04-27T07:52:04.450Z,1000.23
2023-04-27T07:53:04.373Z,1000.25
2023-04-27T07:54:04.347Z,1000.26
2023-04-27T07:55:04.233Z,1000.24
2023-04-27T07:56:04.171Z,1000.25
2023-04-27T07:57:04.107Z,1000.14
2023-04-27T07:58:04.086Z,1000.23
2023-04-27T07:59:03.986Z,1000.22
2023-04-27T08:00:03.955Z,1000.21
2023-04-27T08:01:03.863Z,1000.20
2023-04-27T08:02:18.394Z,1000.24
2023-04-27T08:03:04.887Z,1000.20
2023-04-27T08:04:04.966Z,1000.19
2023-04-27T08:05:06.223Z,1000.17
2023-04-27T08:06:05.881Z,1000.16
2023-04-27T08:07:03.994Z,1000.16
2023-04-27T08:08:04.592Z,1000.16
2023-04-27T08:09:03.356Z,1000.16
2023-04-27T08:10:03.260Z,1000.12
2023-04-27T08:11:03.379Z,1000.16
2023-04-27T08:12:03.171Z,1000.13
2023-04-27T08:13:03.141Z,1000.12
2023-04-27T08:14:03.071Z,1000.08
2023-04-27T08:15:03.006Z,1000.09
2023-04-27T08:16:02.907Z,1000.13
2023-04-27T08:17:03.703Z,1000.13
2023-04-27T08:18:02.854Z,1000.11
2023-04-27T08:19:02.786Z,1000.06
2023-04-27T08:20:02.698Z,1000.04
2023-04-27T08:21:02.617Z,1000.00
2023-04-27T08:22:02.570Z,1000.01
2023-04-27T08:23:02.505Z,1000.03
2023-04-27T08:24:02.412Z,999.98
2023-04-27T08:25:02.378Z,1000.00
2023-04-27T08:26:02.317Z,999.98
2023-04-27T08:27:02.259Z,1000.00
2023-04-27T08:28:02.189Z,1000.05
2023-04-27T08:29:08.803Z,999.99
2023-04-27T08:30:02.041Z,999.98
2023-04-27T08:31:02.010Z,1000.03
2023-04-27T08:33:11.137Z,1000.04
2023-04-27T08:34:12.564Z,1000.02
2023-04-27T08:35:11.958Z,999.97
2023-04-27T08:36:11.906Z,1000.01
2023-04-27T08:37:11.827Z,1000.01
2023-04-27T08:38:11.759Z,1000.02
2023-04-27T08:39:11.874Z,999.99
2023-04-27T08:40:11.609Z,999.97
2023-04-27T08:41:21.450Z,999.97
2023-04-27T08:42:11.508Z,999.99
2023-04-27T08:43:11.453Z,1000.00
2023-04-27T08:44:11.420Z,1000.01
2023-04-27T08:45:11.306Z,999.97
2023-04-27T08:46:11.291Z,999.96
2023-04-27T08:47:11.251Z,999.91
2023-04-27T08:48:11.214Z,999.96
2023-04-27T08:49:11.241Z,999.95
2023-04-27T08:50:11.052Z,999.89
2023-04-27T08:51:10.956Z,999.86
2023-04-27T08:52:10.888Z,999.87
2023-04-27T08:53:10.794Z,999.89
2023-04-27T08:54:10.787Z,999.87
2023-04-27T08:55:10.718Z,999.84
2023-04-27T08:56:10.676Z,999.89
2023-04-27T08:57:10.569Z,999.89
2023-04-27T08:58:10.533Z,999.81
2023-04-27T08:59:10.437Z,999.85
2023-04-27T09:00:10.379Z,999.81
2023-04-27T09:01:10.291Z,999.78
2023-04-27T09:03:49.399Z,999.84
2023-04-27T09:04:50.205Z,999.81
2023-04-27T09:06:03.461Z,999.85
2023-04-27T09:06:49.989Z,999.79
2023-04-27T09:07:49.882Z,999.79
2023-04-27T09:08:49.918Z,999.83
2023-04-27T09:09:49.779Z,999.83
2023-04-27T09:10:49.676Z,999.77
2023-04-27T09:11:49.654Z,999.86
2023-04-27T09:12:49.559Z,999.86
2023-04-27T09:13:49.577Z,999.83
2023-04-27T09:14:49.434Z,999.87
2023-04-27T09:15:49.450Z,999.82
2023-04-27T09:16:49.388Z,999.84
2023-04-27T09:17:49.362Z,999.79
2023-04-27T09:18:49.186Z,999.85
2023-04-27T09:20:27.180Z,999.83
2023-04-27T09:20:49.249Z,999.82
2023-04-27T09:21:48.991Z,999.81
2023-04-27T09:22:48.953Z,999.86
2023-04-27T09:23:48.882Z,999.82
2023-04-27T09:24:48.810Z,999.86
2023-04-27T09:25:48.722Z,999.83
2023-04-27T09:26:48.692Z,999.82
2023-04-27T09:27:48.676Z,999.84
2023-04-27T09:28:48.586Z,999.84
2023-04-27T09:29:48.473Z,999.85
2023-04-27T09:30:49.138Z,999.85
2023-04-27T09:31:48.426Z,999.85
2023-04-27T09:32:48.349Z,999.89
2023-04-27T09:33:48.271Z,999.90
2023-04-27T09:34:48.202Z,999.93
2023-04-27T09:35:48.189Z,999.92
2023-04-27T09:36:48.065Z,999.87
2023-04-27T09:38:08.975Z,999.85
2023-04-27T09:38:47.907Z,999.88
2023-04-27T09:39:48.438Z,999.87
2023-04-27T09:40:47.794Z,999.90
2023-04-27T09:41:47.720Z,999.89
2023-04-27T09:42:47.663Z,999.85
2023-04-27T09:43:47.658Z,999.86
2023-04-27T09:44:47.541Z,999.90
2023-04-27T09:45:47.505Z,999.86
2023-04-27T09:46:47.465Z,999.90
2023-04-27T09:47:47.407Z,999.87
2023-04-27T09:48:47.282Z,999.82
2023-04-27T09:49:47.243Z,999.85
2023-04-27T09:50:47.218Z,999.88
2023-04-27T09:51:47.139Z,999.83
2023-04-27T09:52:47.106Z,999.83
2023-04-27T09:53:46.974Z,999.79
2023-04-27T09:54:46.968Z,999.81
2023-04-27T09:55:46.854Z,999.85
2023-04-27T09:56:46.818Z,999.81
2023-04-27T09:57:46.722Z,999.76
2023-04-27T09:58:46.697Z,999.79
2023-04-27T09:59:47.661Z,999.81
2023-04-27T10:00:46.621Z,999.76
2023-04-27T10:01:46.590Z,999.79
2023-04-27T10:02:53.211Z,999.73
2023-04-27T10:03:46.512Z,999.76
2023-04-27T10:04:46.327Z,999.79
2023-04-27T10:05:46.283Z,999.80
2023-04-27T10:06:46.272Z,999.76
2023-04-27T10:07:46.180Z,999.79
2023-04-27T10:08:46.067Z,999.79
2023-04-27T10:09:46.028Z,999.78
2023-04-27T10:10:46.001Z,999.77
2023-04-27T10:11:45.905Z,999.77
2023-04-27T10:12:46.254Z,999.80
2023-04-27T10:14:03.125Z,999.78
2023-04-27T10:14:46.026Z,999.80
2023-04-27T10:15:45.762Z,999.74
2023-04-27T10:16:45.656Z,999.77
2023-04-27T10:17:45.712Z,999.79
2023-04-27T10:18:46.233Z,999.79
2023-04-27T10:19:46.148Z,999.77
2023-04-27T10:20:46.660Z,999.69
2023-04-27T10:21:45.236Z,999.72
2023-04-27T10:22:45.215Z,999.74
2023-04-27T10:23:45.293Z,999.74
2023-04-27T10:24:45.660Z,999.72
2023-04-27T10:25:44.981Z,999.67
2023-04-27T10:26:44.927Z,999.67
2023-04-27T10:27:44.850Z,999.63
2023-04-27T10:28:44.777Z,999.62
2023-04-27T10:29:44.720Z,999.60
2023-04-27T10:30:46.438Z,999.60
2023-04-27T10:31:44.632Z,999.58
2023-04-27T10:32:46.695Z,999.58
2023-04-27T10:33:46.109Z,999.63
2023-04-27T10:34:44.424Z,999.56
2023-04-27T10:35:44.396Z,999.58
2023-04-27T10:36:44.345Z,999.57
2023-04-27T10:37:44.287Z,999.59
2023-04-27T10:38:44.150Z,999.55
2023-04-27T10:39:49.084Z,999.54
2023-04-27T10:40:44.079Z,999.46
2023-04-27T10:41:45.150Z,999.49
2023-04-27T10:42:44.047Z,999.55
2023-04-27T10:43:44.025Z,999.48
2023-04-27T10:44:43.926Z,999.50
2023-04-27T10:45:43.736Z,999.46
2023-04-27T10:46:43.766Z,999.51
2023-04-27T10:47:44.667Z,999.47
2023-04-27T10:48:44.325Z,999.48
2023-04-27T10:49:44.206Z,999.47
2023-04-27T10:50:43.915Z,999.48
2023-04-27T10:51:43.449Z,999.52
2023-04-27T10:52:43.328Z,999.47
2023-04-27T10:53:43.252Z,999.46
2023-04-27T10:54:43.206Z,999.46
2023-04-27T10:56:17.964Z,999.42
2023-04-27T10:56:45.656Z,999.47
2023-04-27T10:57:43.053Z,999.42
2023-04-27T10:58:48.877Z,999.43
2023-04-27T10:59:42.904Z,999.46
2023-04-27T11:00:42.774Z,999.40
2023-04-27T11:01:42.777Z,999.42
2023-04-27T11:02:42.777Z,999.36
2023-04-27T11:03:42.796Z,999.35
2023-04-27T11:04:43.732Z,999.33
2023-04-27T11:05:42.568Z,999.33
2023-04-27T11:06:42.395Z,999.37
2023-04-27T11:07:42.381Z,999.35
2023-04-27T11:08:42.369Z,999.30
2023-04-27T11:09:42.992Z,999.29
2023-04-27T11:10:42.139Z,999.27
2023-04-27T11:11:42.134Z,999.24
2023-04-27T11:12:42.974Z,999.25
2023-04-27T11:13:43.007Z,999.21
2023-04-27T11:14:41.961Z,999.22
2023-04-27T11:15:41.968Z,999.20
2023-04-27T11:16:43.037Z,999.26
2023-04-27T11:17:41.861Z,999.22
2023-04-27T11:18:41.739Z,999.24
2023-04-27T11:19:41.628Z,999.24
2023-04-27T11:20:41.549Z,999.24
2023-04-27T11:21:41.487Z,999.26
2023-04-27T11:22:41.584Z,999.21
2023-04-27T11:23:41.365Z,999.24
2023-04-27T11:24:41.330Z,999.21
2023-04-27T11:25:58.646Z,999.21
2023-04-27T11:26:41.184Z,999.24
2023-04-27T11:27:41.140Z,999.18
2023-04-27T11:28:41.054Z,999.20
2023-04-27T11:29:40.980Z,999.19
2023-04-27T11:30:40.925Z,999.19
2023-04-27T11:31:40.896Z,999.17
2023-04-27T11:32:40.847Z,999.13
2023-04-27T11:33:40.768Z,999.17
2023-04-27T11:34:40.699Z,999.13
2023-04-27T11:35:40.633Z,999.15
2023-04-27T11:36:40.561Z,999.17
2023-04-27T11:37:40.476Z,999.11
2023-04-27T11:38:40.555Z,999.08
2023-04-27T11:39:40.355Z,999.09
2023-04-27T11:40:40.293Z,999.09
2023-04-27T11:41:40.244Z,999.07
2023-04-27T11:42:40.223Z,999.09
2023-04-27T11:44:14.876Z,999.04
2023-04-27T11:44:40.241Z,999.03
2023-04-27T11:45:39.987Z,999.07
2023-04-27T11:46:40.000Z,999.06
2023-04-27T11:47:39.858Z,999.03
2023-04-27T11:48:39.817Z,999.04
2023-04-27T11:49:39.770Z,998.96
2023-04-27T11:50:39.697Z,998.98
2023-04-27T11:51:39.591Z,998.96
2023-04-27T11:52:39.551Z,998.97
2023-04-27T11:53:39.529Z,998.93
2023-04-27T11:54:39.445Z,998.94
2023-04-27T11:55:39.369Z,998.96
2023-04-27T11:56:39.345Z,998.98
2023-04-27T11:57:39.258Z,998.89
2023-04-27T11:58:39.165Z,998.90
2023-04-27T11:59:39.100Z,998.91
2023-04-27T12:00:39.040Z,998.90
2023-04-27T12:01:39.022Z,998.83
2023-04-27T12:02:39.142Z,998.83
2023-04-27T12:03:39.227Z,998.86
2023-04-27T12:04:38.899Z,998.86
2023-04-27T12:05:38.860Z,998.90
2023-04-27T12:06:38.991Z,998.95
2023-04-27T12:07:38.640Z,998.93
2023-04-27T12:08:38.624Z,998.95
2023-04-27T12:09:38.480Z,998.92
2023-04-27T12:10:38.445Z,998.93
2023-04-27T12:11:38.385Z,998.99
2023-04-27T12:12:38.324Z,999.00
2023-04-27T12:13:38.215Z,999.00
2023-04-27T12:14:38.236Z,998.97
2023-04-27T12:15:38.079Z,998.95
2023-04-27T12:16:38.929Z,998.90
2023-04-27T12:17:38.029Z,998.95
2023-04-27T12:18:37.951Z,998.97
2023-04-27T12:20:14.677Z,998.92
2023-04-27T12:20:37.799Z,998.96
2023-04-27T12:21:37.701Z,998.94
2023-04-27T12:22:37.697Z,998.94
2023-04-27T12:23:37.598Z,998.89
2023-04-27T12:24:37.557Z,998.89
2023-04-27T12:25:37.525Z,998.83
2023-04-27T12:26:37.444Z,998.86
2023-04-27T12:27:37.335Z,998.82
2023-04-27T12:28:37.301Z,998.87
2023-04-27T12:29:37.199Z,998.84
2023-04-27T12:30:37.237Z,998.84
2023-04-27T12:31:37.206Z,998.84
2023-04-27T12:32:37.056Z,998.86
2023-04-27T12:33:37.016Z,998.87
2023-04-27T12:34:36.890Z,998.84